sensor_id;sensor_type;location;lat;lon;timestamp;temperature;humidity
39079;DHT22;24829;49.208;12.080;2023-09-19T00:02:01;16.20;99.90
39079;DHT22;24829;49.208;12.080;2023-09-19T00:04:34;16.20;99.90
39079;DHT22;24829;49.208;12.080;2023-09-19T00:07:00;16.20;99.90
39079;DHT22;24829;49.208;12.080;2023-09-19T00:09:28;16.20;99.90
39079;DHT22;24829;49.208;12.080;2023-09-19T00:11:53;16.20;99.90
39079;DHT22;24829;49.208;12.080;2023-09-19T00:14:19;16.10;99.90
39079;DHT22;24829;49.208;12.080;2023-09-19T00:16:45;16.10;99.90
39079;DHT22;24829;49.208;12.080;2023-09-19T00:19:11;16.10;99.90
39079;DHT22;24829;49.208;12.080;2023-09-19T00:21:38;16.10;99.90
39079;DHT22;24829;49.208;12.080;2023-09-19T00:24:04;16.10;99.90
39079;DHT22;24829;49.208;12.080;2023-09-19T00:26:32;16.10;99.90
39079;DHT22;24829;49.208;12.080;2023-09-19T00:28:57;16.10;99.90
39079;DHT22;24829;49.208;12.080;2023-09-19T00:31:25;16.10;99.90
39079;DHT22;24829;49.208;12.080;2023-09-19T00:33:50;16.10;99.90
39079;DHT22;24829;49.208;12.080;2023-09-19T00:36:16;16.10;99.90
39079;DHT22;24829;49.208;12.080;2023-09-19T00:38:43;16.10;99.90
39079;DHT22;24829;49.208;12.080;2023-09-19T00:41:11;16.20;99.90
39079;DHT22;24829;49.208;12.080;2023-09-19T00:43:38;16.20;99.90
39079;DHT22;24829;49.208;12.080;2023-09-19T00:46:06;16.20;99.90
39079;DHT22;24829;49.208;12.080;2023-09-19T00:48:31;16.20;99.90
39079;DHT22;24829;49.208;12.080;2023-09-19T00:51:02;16.20;99.90
39079;DHT22;24829;49.208;12.080;2023-09-19T00:53:31;16.20;99.90
39079;DHT22;24829;49.208;12.080;2023-09-19T00:55:56;16.30;99.90
39079;DHT22;24829;49.208;12.080;2023-09-19T00:58:22;16.20;99.90
39079;DHT22;24829;49.208;12.080;2023-09-19T01:00:48;16.20;99.90
39079;DHT22;24829;49.208;12.080;2023-09-19T01:03:14;16.20;99.90
39079;DHT22;24829;49.208;12.080;2023-09-19T01:05:40;16.20;99.90
39079;DHT22;24829;49.208;12.080;2023-09-19T01:08:06;16.20;99.90
39079;DHT22;24829;49.208;12.080;2023-09-19T01:10:33;16.20;99.90
39079;DHT22;24829;49.208;12.080;2023-09-19T01:16:01;16.30;99.90
39079;DHT22;24829;49.208;12.080;2023-09-19T01:18:48;16.30;99.90
39079;DHT22;24829;49.208;12.080;2023-09-19T01:21:31;16.30;99.90
39079;DHT22;24829;49.208;12.080;2023-09-19T01:27:14;16.30;99.90
39079;DHT22;24829;49.208;12.080;2023-09-19T01:29:44;16.30;99.90
39079;DHT22;24829;49.208;12.080;2023-09-19T01:32:15;16.30;99.90
39079;DHT22;24829;49.208;12.080;2023-09-19T01:34:50;16.30;99.90
39079;DHT22;24829;49.208;12.080;2023-09-19T01:37:19;16.30;99.90
39079;DHT22;24829;49.208;12.080;2023-09-19T01:39:52;16.30;99.90
39079;DHT22;24829;49.208;12.080;2023-09-19T01:47:55;16.30;99.90
39079;DHT22;24829;49.208;12.080;2023-09-19T01:50:49;16.30;99.90
39079;DHT22;24829;49.208;12.080;2023-09-19T01:53:35;16.30;99.90
39079;DHT22;24829;49.208;12.080;2023-09-19T01:56:01;16.30;99.90
39079;DHT22;24829;49.208;12.080;2023-09-19T01:58:37;16.30;99.90
39079;DHT22;24829;49.208;12.080;2023-09-19T02:01:04;16.30;99.90
39079;DHT22;24829;49.208;12.080;2023-09-19T02:03:31;16.30;99.90
39079;DHT22;24829;49.208;12.080;2023-09-19T02:05:58;16.20;99.90
39079;DHT22;24829;49.208;12.080;2023-09-19T02:08:24;16.20;99.90
39079;DHT22;24829;49.208;12.080;2023-09-19T02:10:51;16.20;99.90
39079;DHT22;24829;49.208;12.080;2023-09-19T02:13:19;16.20;99.90
39079;DHT22;24829;49.208;12.080;2023-09-19T02:15:45;16.20;99.90
39079;DHT22;24829;49.208;12.080;2023-09-19T02:18:12;16.20;99.90
39079;DHT22;24829;49.208;12.080;2023-09-19T02:20:38;16.10;99.90
39079;DHT22;24829;49.208;12.080;2023-09-19T02:23:04;16.10;99.90
39079;DHT22;24829;49.208;12.080;2023-09-19T02:25:29;16.10;99.90
39079;DHT22;24829;49.208;12.080;2023-09-19T02:27:56;16.10;99.90
39079;DHT22;24829;49.208;12.080;2023-09-19T02:30:26;16.20;99.90
39079;DHT22;24829;49.208;12.080;2023-09-19T02:32:52;16.20;99.90
39079;DHT22;24829;49.208;12.080;2023-09-19T02:35:18;16.20;99.90
39079;DHT22;24829;49.208;12.080;2023-09-19T02:37:46;16.20;99.90
39079;DHT22;24829;49.208;12.080;2023-09-19T02:40:12;16.10;99.90
39079;DHT22;24829;49.208;12.080;2023-09-19T02:42:47;16.20;99.90
39079;DHT22;24829;49.208;12.080;2023-09-19T02:45:15;16.10;99.90
39079;DHT22;24829;49.208;12.080;2023-09-19T02:47:43;16.20;99.90
39079;DHT22;24829;49.208;12.080;2023-09-19T02:50:09;16.10;99.90
39079;DHT22;24829;49.208;12.080;2023-09-19T02:52:36;16.10;99.90
39079;DHT22;24829;49.208;12.080;2023-09-19T02:55:02;16.20;99.90
39079;DHT22;24829;49.208;12.080;2023-09-19T02:57:29;16.20;99.90
39079;DHT22;24829;49.208;12.080;2023-09-19T02:59:56;16.20;99.90
39079;DHT22;24829;49.208;12.080;2023-09-19T03:02:22;16.20;99.90
39079;DHT22;24829;49.208;12.080;2023-09-19T03:04:49;16.20;99.90
39079;DHT22;24829;49.208;12.080;2023-09-19T03:07:16;16.20;99.90
39079;DHT22;24829;49.208;12.080;2023-09-19T03:09:42;16.10;99.90
39079;DHT22;24829;49.208;12.080;2023-09-19T03:12:08;16.20;99.90
39079;DHT22;24829;49.208;12.080;2023-09-19T03:14:34;16.20;99.90
39079;DHT22;24829;49.208;12.080;2023-09-19T03:17:01;16.10;99.90
39079;DHT22;24829;49.208;12.080;2023-09-19T03:19:26;16.10;99.90
39079;DHT22;24829;49.208;12.080;2023-09-19T03:21:52;16.10;99.90
39079;DHT22;24829;49.208;12.080;2023-09-19T03:24:18;16.10;99.90
39079;DHT22;24829;49.208;12.080;2023-09-19T03:26:45;16.10;99.90
39079;DHT22;24829;49.208;12.080;2023-09-19T03:29:11;16.10;99.90
39079;DHT22;24829;49.208;12.080;2023-09-19T03:31:36;16.10;99.90
39079;DHT22;24829;49.208;12.080;2023-09-19T03:34:02;16.10;99.90
39079;DHT22;24829;49.208;12.080;2023-09-19T03:36:29;16.10;99.90
39079;DHT22;24829;49.208;12.080;2023-09-19T03:38:55;16.10;99.90
39079;DHT22;24829;49.208;12.080;2023-09-19T03:41:20;16.10;99.90
39079;DHT22;24829;49.208;12.080;2023-09-19T03:43:46;16.10;99.90
39079;DHT22;24829;49.208;12.080;2023-09-19T03:46:12;16.00;99.90
39079;DHT22;24829;49.208;12.080;2023-09-19T03:48:40;16.10;99.90
39079;DHT22;24829;49.208;12.080;2023-09-19T03:51:06;16.10;99.90
39079;DHT22;24829;49.208;12.080;2023-09-19T03:53:31;16.00;99.90
39079;DHT22;24829;49.208;12.080;2023-09-19T03:55:57;16.00;99.90
39079;DHT22;24829;49.208;12.080;2023-09-19T03:58:23;16.00;99.90
39079;DHT22;24829;49.208;12.080;2023-09-19T04:00:48;16.00;99.90
39079;DHT22;24829;49.208;12.080;2023-09-19T04:03:15;16.00;99.90
39079;DHT22;24829;49.208;12.080;2023-09-19T04:05:46;16.00;99.90
39079;DHT22;24829;49.208;12.080;2023-09-19T04:08:13;16.00;99.90
39079;DHT22;24829;49.208;12.080;2023-09-19T04:10:41;16.00;99.90
39079;DHT22;24829;49.208;12.080;2023-09-19T04:13:07;16.00;99.90
39079;DHT22;24829;49.208;12.080;2023-09-19T04:15:33;16.00;99.90
39079;DHT22;24829;49.208;12.080;2023-09-19T04:17:58;15.90;99.90
39079;DHT22;24829;49.208;12.080;2023-09-19T04:20:24;15.90;99.90
39079;DHT22;24829;49.208;12.080;2023-09-19T04:22:49;15.90;99.90
39079;DHT22;24829;49.208;12.080;2023-09-19T04:25:15;15.90;99.90
39079;DHT22;24829;49.208;12.080;2023-09-19T04:27:41;15.90;99.90
39079;DHT22;24829;49.208;12.080;2023-09-19T04:30:09;15.90;99.90
39079;DHT22;24829;49.208;12.080;2023-09-19T04:32:35;15.90;99.90
39079;DHT22;24829;49.208;12.080;2023-09-19T04:35:01;15.90;99.90
39079;DHT22;24829;49.208;12.080;2023-09-19T04:37:31;15.90;99.90
39079;DHT22;24829;49.208;12.080;2023-09-19T04:39:56;15.90;99.90
39079;DHT22;24829;49.208;12.080;2023-09-19T04:42:22;15.80;99.90
39079;DHT22;24829;49.208;12.080;2023-09-19T04:44:50;15.80;99.90
39079;DHT22;24829;49.208;12.080;2023-09-19T04:47:18;15.80;99.90
39079;DHT22;24829;49.208;12.080;2023-09-19T04:49:43;15.80;99.90
39079;DHT22;24829;49.208;12.080;2023-09-19T04:52:09;15.80;99.90
39079;DHT22;24829;49.208;12.080;2023-09-19T04:54:34;15.70;99.90
39079;DHT22;24829;49.208;12.080;2023-09-19T04:57:00;15.70;99.90
39079;DHT22;24829;49.208;12.080;2023-09-19T04:59:26;15.80;99.90
39079;DHT22;24829;49.208;12.080;2023-09-19T05:01:51;15.80;99.90
39079;DHT22;24829;49.208;12.080;2023-09-19T05:04:17;15.90;99.90
39079;DHT22;24829;49.208;12.080;2023-09-19T05:06:42;15.90;99.90
39079;DHT22;24829;49.208;12.080;2023-09-19T05:09:08;16.00;99.90
39079;DHT22;24829;49.208;12.080;2023-09-19T05:11:33;16.00;99.90
39079;DHT22;24829;49.208;12.080;2023-09-19T05:13:59;16.00;99.90
39079;DHT22;24829;49.208;12.080;2023-09-19T05:16:29;16.00;99.90
39079;DHT22;24829;49.208;12.080;2023-09-19T05:18:57;16.00;99.90
39079;DHT22;24829;49.208;12.080;2023-09-19T05:21:25;16.00;99.90
39079;DHT22;24829;49.208;12.080;2023-09-19T05:23:54;16.00;99.90
39079;DHT22;24829;49.208;12.080;2023-09-19T05:26:19;16.00;99.90
39079;DHT22;24829;49.208;12.080;2023-09-19T05:28:46;16.00;99.90
39079;DHT22;24829;49.208;12.080;2023-09-19T05:31:13;16.00;99.90
39079;DHT22;24829;49.208;12.080;2023-09-19T05:33:39;16.00;99.90
39079;DHT22;24829;49.208;12.080;2023-09-19T05:36:05;16.00;99.90
39079;DHT22;24829;49.208;12.080;2023-09-19T05:38:30;16.00;99.90
39079;DHT22;24829;49.208;12.080;2023-09-19T05:40:58;16.00;99.90
39079;DHT22;24829;49.208;12.080;2023-09-19T05:43:23;16.00;99.90
39079;DHT22;24829;49.208;12.080;2023-09-19T05:45:49;16.00;99.90
39079;DHT22;24829;49.208;12.080;2023-09-19T05:48:17;16.10;99.90
39079;DHT22;24829;49.208;12.080;2023-09-19T05:50:43;16.10;99.90
39079;DHT22;24829;49.208;12.080;2023-09-19T05:53:09;16.10;99.90
39079;DHT22;24829;49.208;12.080;2023-09-19T05:55:37;16.10;99.90
39079;DHT22;24829;49.208;12.080;2023-09-19T05:58:02;16.20;99.90
39079;DHT22;24829;49.208;12.080;2023-09-19T06:00:29;16.30;99.90
39079;DHT22;24829;49.208;12.080;2023-09-19T06:02:58;16.30;99.90
39079;DHT22;24829;49.208;12.080;2023-09-19T06:05:25;16.60;99.90
39079;DHT22;24829;49.208;12.080;2023-09-19T06:07:52;16.80;99.90
39079;DHT22;24829;49.208;12.080;2023-09-19T06:10:18;16.80;99.90
39079;DHT22;24829;49.208;12.080;2023-09-19T06:12:46;16.80;99.90
39079;DHT22;24829;49.208;12.080;2023-09-19T06:15:13;16.90;99.90
39079;DHT22;24829;49.208;12.080;2023-09-19T06:17:52;16.90;99.90
39079;DHT22;24829;49.208;12.080;2023-09-19T06:20:21;16.80;99.90
39079;DHT22;24829;49.208;12.080;2023-09-19T06:22:48;16.80;99.90
39079;DHT22;24829;49.208;12.080;2023-09-19T06:25:15;16.70;99.90
39079;DHT22;24829;49.208;12.080;2023-09-19T06:27:48;16.70;99.90
39079;DHT22;24829;49.208;12.080;2023-09-19T06:30:14;16.60;99.90
39079;DHT22;24829;49.208;12.080;2023-09-19T06:32:43;16.60;99.90
39079;DHT22;24829;49.208;12.080;2023-09-19T06:35:15;16.60;99.90
39079;DHT22;24829;49.208;12.080;2023-09-19T06:37:41;16.50;99.90
39079;DHT22;24829;49.208;12.080;2023-09-19T06:40:11;16.50;99.90
39079;DHT22;24829;49.208;12.080;2023-09-19T06:42:44;16.50;99.90
39079;DHT22;24829;49.208;12.080;2023-09-19T06:45:11;16.50;99.90
39079;DHT22;24829;49.208;12.080;2023-09-19T06:47:39;16.70;99.90
39079;DHT22;24829;49.208;12.080;2023-09-19T06:50:05;16.90;99.90
39079;DHT22;24829;49.208;12.080;2023-09-19T06:52:34;17.10;99.90
39079;DHT22;24829;49.208;12.080;2023-09-19T06:55:00;17.20;99.90
39079;DHT22;24829;49.208;12.080;2023-09-19T06:57:28;17.30;99.90
39079;DHT22;24829;49.208;12.080;2023-09-19T06:59:56;17.40;99.90
39079;DHT22;24829;49.208;12.080;2023-09-19T07:02:21;17.50;99.90
39079;DHT22;24829;49.208;12.080;2023-09-19T07:04:47;17.50;99.90
39079;DHT22;24829;49.208;12.080;2023-09-19T07:07:12;17.60;99.90
39079;DHT22;24829;49.208;12.080;2023-09-19T07:09:39;17.70;99.90
39079;DHT22;24829;49.208;12.080;2023-09-19T07:12:05;17.70;99.90
39079;DHT22;24829;49.208;12.080;2023-09-19T07:14:30;17.80;99.90
39079;DHT22;24829;49.208;12.080;2023-09-19T07:16:56;17.90;99.90
39079;DHT22;24829;49.208;12.080;2023-09-19T07:19:22;18.10;99.90
39079;DHT22;24829;49.208;12.080;2023-09-19T07:21:47;18.20;99.90
39079;DHT22;24829;49.208;12.080;2023-09-19T07:24:14;18.30;99.90
39079;DHT22;24829;49.208;12.080;2023-09-19T07:26:40;18.40;99.90
39079;DHT22;24829;49.208;12.080;2023-09-19T07:29:05;18.50;99.90
39079;DHT22;24829;49.208;12.080;2023-09-19T07:31:34;18.40;99.90
39079;DHT22;24829;49.208;12.080;2023-09-19T07:33:59;18.30;99.90
39079;DHT22;24829;49.208;12.080;2023-09-19T07:36:25;18.40;99.90
39079;DHT22;24829;49.208;12.080;2023-09-19T07:38:50;18.40;99.90
39079;DHT22;24829;49.208;12.080;2023-09-19T07:41:16;18.50;99.90
39079;DHT22;24829;49.208;12.080;2023-09-19T07:43:41;18.50;99.90
39079;DHT22;24829;49.208;12.080;2023-09-19T07:46:08;18.60;99.90
39079;DHT22;24829;49.208;12.080;2023-09-19T07:48:38;18.60;99.90
39079;DHT22;24829;49.208;12.080;2023-09-19T07:51:05;18.50;99.90
39079;DHT22;24829;49.208;12.080;2023-09-19T07:53:31;18.60;99.90
39079;DHT22;24829;49.208;12.080;2023-09-19T07:56:04;18.60;99.90
39079;DHT22;24829;49.208;12.080;2023-09-19T07:58:30;18.80;99.90
39079;DHT22;24829;49.208;12.080;2023-09-19T08:01:01;18.90;99.90
39079;DHT22;24829;49.208;12.080;2023-09-19T08:03:27;19.00;99.90
39079;DHT22;24829;49.208;12.080;2023-09-19T08:05:52;19.00;99.90
39079;DHT22;24829;49.208;12.080;2023-09-19T08:08:18;19.00;99.90
39079;DHT22;24829;49.208;12.080;2023-09-19T08:10:43;19.10;99.90
39079;DHT22;24829;49.208;12.080;2023-09-19T08:13:14;19.20;99.90
39079;DHT22;24829;49.208;12.080;2023-09-19T08:15:45;19.30;99.90
39079;DHT22;24829;49.208;12.080;2023-09-19T08:18:11;19.30;99.90
39079;DHT22;24829;49.208;12.080;2023-09-19T08:20:39;19.30;99.90
39079;DHT22;24829;49.208;12.080;2023-09-19T08:23:06;19.30;99.90
39079;DHT22;24829;49.208;12.080;2023-09-19T08:25:32;19.30;99.90
39079;DHT22;24829;49.208;12.080;2023-09-19T08:27:57;19.40;99.90
39079;DHT22;24829;49.208;12.080;2023-09-19T08:30:27;19.60;99.90
39079;DHT22;24829;49.208;12.080;2023-09-19T08:32:59;19.80;99.90
39079;DHT22;24829;49.208;12.080;2023-09-19T08:35:25;19.90;99.90
39079;DHT22;24829;49.208;12.080;2023-09-19T08:37:51;20.00;99.90
39079;DHT22;24829;49.208;12.080;2023-09-19T08:40:17;19.90;99.90
39079;DHT22;24829;49.208;12.080;2023-09-19T08:42:56;20.00;99.90
39079;DHT22;24829;49.208;12.080;2023-09-19T08:45:23;20.10;99.90
39079;DHT22;24829;49.208;12.080;2023-09-19T08:51:12;20.30;99.90
39079;DHT22;24829;49.208;12.080;2023-09-19T08:53:54;20.50;99.90
39079;DHT22;24829;49.208;12.080;2023-09-19T08:56:26;20.70;99.90
39079;DHT22;24829;49.208;12.080;2023-09-19T08:58:57;20.70;99.90
39079;DHT22;24829;49.208;12.080;2023-09-19T09:01:27;20.60;99.90
39079;DHT22;24829;49.208;12.080;2023-09-19T09:03:54;20.40;99.90
39079;DHT22;24829;49.208;12.080;2023-09-19T09:06:24;20.20;99.90
39079;DHT22;24829;49.208;12.080;2023-09-19T09:08:50;20.10;99.90
39079;DHT22;24829;49.208;12.080;2023-09-19T09:11:17;20.10;99.90
39079;DHT22;24829;49.208;12.080;2023-09-19T09:13:47;20.00;99.90
39079;DHT22;24829;49.208;12.080;2023-09-19T09:16:14;20.00;99.90
39079;DHT22;24829;49.208;12.080;2023-09-19T09:18:43;19.90;99.90
39079;DHT22;24829;49.208;12.080;2023-09-19T09:21:10;19.90;99.90
39079;DHT22;24829;49.208;12.080;2023-09-19T09:23:35;19.90;99.90
39079;DHT22;24829;49.208;12.080;2023-09-19T09:26:01;19.90;99.90
39079;DHT22;24829;49.208;12.080;2023-09-19T09:28:30;19.90;99.90
39079;DHT22;24829;49.208;12.080;2023-09-19T09:30:57;19.90;99.90
39079;DHT22;24829;49.208;12.080;2023-09-19T09:33:38;20.00;99.90
39079;DHT22;24829;49.208;12.080;2023-09-19T09:36:05;19.90;99.90
39079;DHT22;24829;49.208;12.080;2023-09-19T09:38:46;19.80;99.90
39079;DHT22;24829;49.208;12.080;2023-09-19T09:41:15;19.80;99.90
39079;DHT22;24829;49.208;12.080;2023-09-19T09:43:52;19.80;99.90
39079;DHT22;24829;49.208;12.080;2023-09-19T09:46:19;19.80;99.90
39079;DHT22;24829;49.208;12.080;2023-09-19T09:48:58;19.80;99.90
39079;DHT22;24829;49.208;12.080;2023-09-19T09:51:43;19.90;99.90
39079;DHT22;24829;49.208;12.080;2023-09-19T09:54:15;19.80;99.90
39079;DHT22;24829;49.208;12.080;2023-09-19T09:56:58;19.90;99.90
39079;DHT22;24829;49.208;12.080;2023-09-19T10:02:35;20.00;99.90
39079;DHT22;24829;49.208;12.080;2023-09-19T10:05:16;20.10;99.90
39079;DHT22;24829;49.208;12.080;2023-09-19T10:07:55;20.10;99.90
39079;DHT22;24829;49.208;12.080;2023-09-19T10:10:40;20.20;99.90
39079;DHT22;24829;49.208;12.080;2023-09-19T10:13:12;20.20;99.90
39079;DHT22;24829;49.208;12.080;2023-09-19T10:15:39;20.30;99.90
39079;DHT22;24829;49.208;12.080;2023-09-19T10:18:14;20.30;99.90
39079;DHT22;24829;49.208;12.080;2023-09-19T10:20:46;20.30;99.90
39079;DHT22;24829;49.208;12.080;2023-09-19T10:23:17;20.30;99.90
39079;DHT22;24829;49.208;12.080;2023-09-19T10:25:48;20.30;99.90
39079;DHT22;24829;49.208;12.080;2023-09-19T10:28:17;20.40;99.90
39079;DHT22;24829;49.208;12.080;2023-09-19T10:30:48;20.50;99.90
39079;DHT22;24829;49.208;12.080;2023-09-19T10:33:16;20.60;99.90
39079;DHT22;24829;49.208;12.080;2023-09-19T10:35:47;20.70;99.90
39079;DHT22;24829;49.208;12.080;2023-09-19T10:38:22;20.90;99.90
39079;DHT22;24829;49.208;12.080;2023-09-19T10:40:52;21.10;99.90
39079;DHT22;24829;49.208;12.080;2023-09-19T10:43:20;21.20;99.90
39079;DHT22;24829;49.208;12.080;2023-09-19T10:45:49;21.20;99.90
39079;DHT22;24829;49.208;12.080;2023-09-19T10:48:17;21.20;99.90
39079;DHT22;24829;49.208;12.080;2023-09-19T10:51:07;21.20;99.90
39079;DHT22;24829;49.208;12.080;2023-09-19T10:54:01;21.10;99.90
39079;DHT22;24829;49.208;12.080;2023-09-19T10:56:34;21.10;99.90
39079;DHT22;24829;49.208;12.080;2023-09-19T10:59:21;21.10;99.90
39079;DHT22;24829;49.208;12.080;2023-09-19T11:01:52;21.10;99.90
39079;DHT22;24829;49.208;12.080;2023-09-19T11:07:06;21.20;99.90
39079;DHT22;24829;49.208;12.080;2023-09-19T11:14:57;21.40;99.90
39079;DHT22;24829;49.208;12.080;2023-09-19T11:17:36;21.40;99.90
39079;DHT22;24829;49.208;12.080;2023-09-19T11:30:32;21.50;99.90
39079;DHT22;24829;49.208;12.080;2023-09-19T11:36:08;21.30;99.90
39079;DHT22;24829;49.208;12.080;2023-09-19T11:43:51;21.20;99.90
39079;DHT22;24829;49.208;12.080;2023-09-19T11:46:17;21.30;99.90
39079;DHT22;24829;49.208;12.080;2023-09-19T11:48:47;21.40;99.90
39079;DHT22;24829;49.208;12.080;2023-09-19T11:51:21;21.40;99.90
39079;DHT22;24829;49.208;12.080;2023-09-19T11:53:49;21.40;99.90
39079;DHT22;24829;49.208;12.080;2023-09-19T11:56:17;21.50;99.90
39079;DHT22;24829;49.208;12.080;2023-09-19T11:58:46;21.60;99.90
39079;DHT22;24829;49.208;12.080;2023-09-19T12:01:15;21.70;99.90
39079;DHT22;24829;49.208;12.080;2023-09-19T12:03:47;21.70;99.90
39079;DHT22;24829;49.208;12.080;2023-09-19T12:06:18;21.80;99.90
39079;DHT22;24829;49.208;12.080;2023-09-19T12:08:44;21.80;99.90
39079;DHT22;24829;49.208;12.080;2023-09-19T12:11:16;21.90;99.90
39079;DHT22;24829;49.208;12.080;2023-09-19T12:13:43;21.90;99.90
39079;DHT22;24829;49.208;12.080;2023-09-19T12:16:17;21.90;99.90
39079;DHT22;24829;49.208;12.080;2023-09-19T12:18:44;21.70;99.90
39079;DHT22;24829;49.208;12.080;2023-09-19T12:21:27;21.60;99.90
39079;DHT22;24829;49.208;12.080;2023-09-19T12:26:45;21.50;99.90
39079;DHT22;24829;49.208;12.080;2023-09-19T12:29:18;21.60;99.90
39079;DHT22;24829;49.208;12.080;2023-09-19T12:31:51;21.70;99.90
39079;DHT22;24829;49.208;12.080;2023-09-19T12:34:21;21.80;99.90
39079;DHT22;24829;49.208;12.080;2023-09-19T12:36:48;22.00;99.90
39079;DHT22;24829;49.208;12.080;2023-09-19T12:39:24;22.00;99.90
39079;DHT22;24829;49.208;12.080;2023-09-19T12:41:55;22.00;99.90
39079;DHT22;24829;49.208;12.080;2023-09-19T12:44:21;22.00;99.90
39079;DHT22;24829;49.208;12.080;2023-09-19T12:46:46;22.00;99.90
39079;DHT22;24829;49.208;12.080;2023-09-19T12:49:19;21.90;99.90
39079;DHT22;24829;49.208;12.080;2023-09-19T12:51:48;22.10;99.90
39079;DHT22;24829;49.208;12.080;2023-09-19T12:54:15;22.20;99.90
39079;DHT22;24829;49.208;12.080;2023-09-19T12:56:45;22.40;99.90
39079;DHT22;24829;49.208;12.080;2023-09-19T12:59:13;22.60;99.90
39079;DHT22;24829;49.208;12.080;2023-09-19T13:01:40;22.70;99.90
39079;DHT22;24829;49.208;12.080;2023-09-19T13:04:19;22.50;99.90
39079;DHT22;24829;49.208;12.080;2023-09-19T13:06:46;22.40;99.90
39079;DHT22;24829;49.208;12.080;2023-09-19T13:09:14;22.30;99.90
39079;DHT22;24829;49.208;12.080;2023-09-19T13:11:41;22.30;99.90
39079;DHT22;24829;49.208;12.080;2023-09-19T13:14:25;22.40;99.90
39079;DHT22;24829;49.208;12.080;2023-09-19T13:17:07;22.40;99.90
39079;DHT22;24829;49.208;12.080;2023-09-19T13:19:49;22.40;99.90
39079;DHT22;24829;49.208;12.080;2023-09-19T13:22:43;22.50;99.90
39079;DHT22;24829;49.208;12.080;2023-09-19T13:25:20;22.50;99.90
39079;DHT22;24829;49.208;12.080;2023-09-19T13:27:49;22.40;99.90
39079;DHT22;24829;49.208;12.080;2023-09-19T13:30:20;22.40;99.90
39079;DHT22;24829;49.208;12.080;2023-09-19T13:32:45;22.30;99.90
39079;DHT22;24829;49.208;12.080;2023-09-19T13:35:13;22.30;99.90
39079;DHT22;24829;49.208;12.080;2023-09-19T13:37:40;22.30;99.90
39079;DHT22;24829;49.208;12.080;2023-09-19T13:40:14;22.30;99.90
39079;DHT22;24829;49.208;12.080;2023-09-19T13:42:41;22.30;99.90
39079;DHT22;24829;49.208;12.080;2023-09-19T13:45:07;22.30;99.90
39079;DHT22;24829;49.208;12.080;2023-09-19T13:47:33;22.30;99.90
39079;DHT22;24829;49.208;12.080;2023-09-19T13:50:01;22.30;99.90
39079;DHT22;24829;49.208;12.080;2023-09-19T13:52:27;22.30;99.90
39079;DHT22;24829;49.208;12.080;2023-09-19T13:54:55;22.20;99.90
39079;DHT22;24829;49.208;12.080;2023-09-19T13:57:24;22.10;99.90
39079;DHT22;24829;49.208;12.080;2023-09-19T13:59:51;21.90;99.90
39079;DHT22;24829;49.208;12.080;2023-09-19T14:02:17;21.80;99.90
39079;DHT22;24829;49.208;12.080;2023-09-19T14:04:48;21.70;99.90
39079;DHT22;24829;49.208;12.080;2023-09-19T14:07:15;21.70;99.90
39079;DHT22;24829;49.208;12.080;2023-09-19T14:09:40;21.70;99.90
39079;DHT22;24829;49.208;12.080;2023-09-19T14:12:06;21.70;99.90
39079;DHT22;24829;49.208;12.080;2023-09-19T14:14:32;21.60;99.90
39079;DHT22;24829;49.208;12.080;2023-09-19T14:16:57;21.60;99.90
39079;DHT22;24829;49.208;12.080;2023-09-19T14:19:26;21.60;99.90
39079;DHT22;24829;49.208;12.080;2023-09-19T14:21:52;21.70;99.90
39079;DHT22;24829;49.208;12.080;2023-09-19T14:24:21;21.80;99.90
39079;DHT22;24829;49.208;12.080;2023-09-19T14:26:47;21.90;99.90
39079;DHT22;24829;49.208;12.080;2023-09-19T14:29:14;21.90;99.90
39079;DHT22;24829;49.208;12.080;2023-09-19T14:31:41;21.90;99.90
39079;DHT22;24829;49.208;12.080;2023-09-19T14:34:07;21.80;99.90
39079;DHT22;24829;49.208;12.080;2023-09-19T14:36:32;21.80;99.90
39079;DHT22;24829;49.208;12.080;2023-09-19T14:39:01;21.90;99.90
39079;DHT22;24829;49.208;12.080;2023-09-19T14:41:26;21.80;99.90
39079;DHT22;24829;49.208;12.080;2023-09-19T14:43:52;21.80;99.90
39079;DHT22;24829;49.208;12.080;2023-09-19T14:46:18;21.80;99.90
39079;DHT22;24829;49.208;12.080;2023-09-19T14:48:44;21.80;99.90
39079;DHT22;24829;49.208;12.080;2023-09-19T14:51:12;21.70;99.90
39079;DHT22;24829;49.208;12.080;2023-09-19T14:53:39;21.60;99.90
39079;DHT22;24829;49.208;12.080;2023-09-19T14:56:08;21.60;99.90
39079;DHT22;24829;49.208;12.080;2023-09-19T14:58:35;21.50;99.90
39079;DHT22;24829;49.208;12.080;2023-09-19T15:01:12;21.50;99.90
39079;DHT22;24829;49.208;12.080;2023-09-19T15:03:39;21.40;99.90
39079;DHT22;24829;49.208;12.080;2023-09-19T15:06:06;21.30;99.90
39079;DHT22;24829;49.208;12.080;2023-09-19T15:08:36;21.20;99.90
39079;DHT22;24829;49.208;12.080;2023-09-19T15:11:04;21.20;99.90
39079;DHT22;24829;49.208;12.080;2023-09-19T15:13:31;21.10;99.90
39079;DHT22;24829;49.208;12.080;2023-09-19T15:16:05;21.10;99.90
39079;DHT22;24829;49.208;12.080;2023-09-19T15:18:34;21.00;99.90
39079;DHT22;24829;49.208;12.080;2023-09-19T15:21:03;21.00;99.90
39079;DHT22;24829;49.208;12.080;2023-09-19T15:23:30;21.00;99.90
39079;DHT22;24829;49.208;12.080;2023-09-19T15:25:58;21.00;99.90
39079;DHT22;24829;49.208;12.080;2023-09-19T15:28:23;21.00;99.90
39079;DHT22;24829;49.208;12.080;2023-09-19T15:30:49;20.90;99.90
39079;DHT22;24829;49.208;12.080;2023-09-19T15:33:15;20.90;99.90
39079;DHT22;24829;49.208;12.080;2023-09-19T15:35:40;20.90;99.90
39079;DHT22;24829;49.208;12.080;2023-09-19T15:38:07;20.80;99.90
39079;DHT22;24829;49.208;12.080;2023-09-19T15:40:33;20.80;99.90
39079;DHT22;24829;49.208;12.080;2023-09-19T15:42:58;20.80;99.90
39079;DHT22;24829;49.208;12.080;2023-09-19T15:45:25;20.80;99.90
39079;DHT22;24829;49.208;12.080;2023-09-19T15:47:51;20.70;99.90
39079;DHT22;24829;49.208;12.080;2023-09-19T15:50:17;20.70;99.90
39079;DHT22;24829;49.208;12.080;2023-09-19T15:52:42;20.70;99.90
39079;DHT22;24829;49.208;12.080;2023-09-19T15:55:08;20.60;99.90
39079;DHT22;24829;49.208;12.080;2023-09-19T15:57:38;20.60;99.90
39079;DHT22;24829;49.208;12.080;2023-09-19T16:00:05;20.50;99.90
39079;DHT22;24829;49.208;12.080;2023-09-19T16:02:36;20.50;99.90
39079;DHT22;24829;49.208;12.080;2023-09-19T16:05:01;20.40;99.90
39079;DHT22;24829;49.208;12.080;2023-09-19T16:07:32;20.40;99.90
39079;DHT22;24829;49.208;12.080;2023-09-19T16:09:58;20.40;99.90
39079;DHT22;24829;49.208;12.080;2023-09-19T16:12:25;20.30;99.90